sensor_id;sensor_type;location;lat;lon;timestamp;P1;durP1;ratioP1;P2;durP2;ratioP2
46653;SDS011;38960;51.074;17.004;2023-02-05T00:02:24;11.93;;;4.83;;
46653;SDS011;38960;51.074;17.004;2023-02-05T00:04:49;10.20;;;4.30;;
46653;SDS011;38960;51.074;17.004;2023-02-05T00:07:15;10.67;;;4.23;;
46653;SDS011;38960;51.074;17.004;2023-02-05T00:09:40;10.63;;;4.63;;
46653;SDS011;38960;51.074;17.004;2023-02-05T00:12:06;10.67;;;4.97;;
46653;SDS011;38960;51.074;17.004;2023-02-05T00:14:32;9.50;;;4.27;;
46653;SDS011;38960;51.074;17.004;2023-02-05T00:16:57;11.07;;;4.80;;
46653;SDS011;38960;51.074;17.004;2023-02-05T00:19:23;14.03;;;4.80;;
46653;SDS011;38960;51.074;17.004;2023-02-05T00:21:49;13.73;;;5.33;;
46653;SDS011;38960;51.074;17.004;2023-02-05T00:24:14;11.83;;;4.47;;
46653;SDS011;38960;51.074;17.004;2023-02-05T00:26:40;8.03;;;4.23;;
46653;SDS011;38960;51.074;17.004;2023-02-05T00:29:05;11.80;;;4.67;;
46653;SDS011;38960;51.074;17.004;2023-02-05T00:31:31;9.93;;;4.33;;
46653;SDS011;38960;51.074;17.004;2023-02-05T00:33:57;9.83;;;4.43;;
46653;SDS011;38960;51.074;17.004;2023-02-05T00:36:23;10.20;;;3.90;;
46653;SDS011;38960;51.074;17.004;2023-02-05T00:38:49;8.73;;;4.20;;
46653;SDS011;38960;51.074;17.004;2023-02-05T00:41:17;8.60;;;4.10;;
46653;SDS011;38960;51.074;17.004;2023-02-05T00:43:43;10.23;;;3.93;;
46653;SDS011;38960;51.074;17.004;2023-02-05T00:46:09;9.57;;;4.27;;
46653;SDS011;38960;51.074;17.004;2023-02-05T00:48:36;9.33;;;4.00;;
46653;SDS011;38960;51.074;17.004;2023-02-05T00:51:01;10.20;;;3.53;;
46653;SDS011;38960;51.074;17.004;2023-02-05T00:53:27;12.20;;;3.90;;
46653;SDS011;38960;51.074;17.004;2023-02-05T00:55:53;8.57;;;3.60;;
46653;SDS011;38960;51.074;17.004;2023-02-05T00:58:19;8.53;;;4.27;;
46653;SDS011;38960;51.074;17.004;2023-02-05T01:00:45;9.97;;;3.83;;
46653;SDS011;38960;51.074;17.004;2023-02-05T01:03:11;6.23;;;3.43;;
46653;SDS011;38960;51.074;17.004;2023-02-05T01:05:37;12.83;;;4.13;;
46653;SDS011;38960;51.074;17.004;2023-02-05T01:08:04;8.47;;;3.57;;
46653;SDS011;38960;51.074;17.004;2023-02-05T01:10:31;8.67;;;3.80;;
46653;SDS011;38960;51.074;17.004;2023-02-05T01:12:56;11.17;;;3.73;;
46653;SDS011;38960;51.074;17.004;2023-02-05T01:15:22;9.07;;;3.40;;
46653;SDS011;38960;51.074;17.004;2023-02-05T01:17:48;10.23;;;4.27;;
46653;SDS011;38960;51.074;17.004;2023-02-05T01:20:14;9.37;;;4.27;;
46653;SDS011;38960;51.074;17.004;2023-02-05T01:22:40;9.50;;;4.20;;
46653;SDS011;38960;51.074;17.004;2023-02-05T01:25:06;9.17;;;4.17;;
46653;SDS011;38960;51.074;17.004;2023-02-05T01:27:32;8.07;;;3.87;;
46653;SDS011;38960;51.074;17.004;2023-02-05T01:29:59;11.03;;;4.20;;
46653;SDS011;38960;51.074;17.004;2023-02-05T01:32:24;9.40;;;3.90;;
46653;SDS011;38960;51.074;17.004;2023-02-05T01:34:51;8.97;;;3.60;;
46653;SDS011;38960;51.074;17.004;2023-02-05T01:37:17;8.40;;;4.10;;
46653;SDS011;38960;51.074;17.004;2023-02-05T01:39:42;7.60;;;3.67;;
46653;SDS011;38960;51.074;17.004;2023-02-05T01:42:16;10.63;;;4.07;;
46653;SDS011;38960;51.074;17.004;2023-02-05T01:45:14;10.33;;;3.47;;
46653;SDS011;38960;51.074;17.004;2023-02-05T01:47:49;11.37;;;5.00;;
46653;SDS011;38960;51.074;17.004;2023-02-05T01:50:16;6.77;;;3.83;;
46653;SDS011;38960;51.074;17.004;2023-02-05T01:52:45;8.93;;;4.30;;
46653;SDS011;38960;51.074;17.004;2023-02-05T01:55:11;8.87;;;3.90;;
46653;SDS011;38960;51.074;17.004;2023-02-05T01:57:37;8.07;;;3.77;;
46653;SDS011;38960;51.074;17.004;2023-02-05T02:00:03;7.07;;;3.30;;
46653;SDS011;38960;51.074;17.004;2023-02-05T02:02:40;10.60;;;3.43;;
46653;SDS011;38960;51.074;17.004;2023-02-05T02:05:07;8.93;;;4.23;;
46653;SDS011;38960;51.074;17.004;2023-02-05T02:07:35;7.43;;;3.37;;
46653;SDS011;38960;51.074;17.004;2023-02-05T02:10:00;7.90;;;3.60;;
46653;SDS011;38960;51.074;17.004;2023-02-05T02:12:28;10.37;;;3.67;;
46653;SDS011;38960;51.074;17.004;2023-02-05T02:14:56;7.73;;;3.63;;
46653;SDS011;38960;51.074;17.004;2023-02-05T02:17:24;9.57;;;3.13;;
46653;SDS011;38960;51.074;17.004;2023-02-05T02:30:46;6.27;;;3.30;;
46653;SDS011;38960;51.074;17.004;2023-02-05T02:35:50;7.70;;;3.37;;
46653;SDS011;38960;51.074;17.004;2023-02-05T02:38:40;9.10;;;3.40;;
46653;SDS011;38960;51.074;17.004;2023-02-05T02:41:17;8.63;;;4.07;;
46653;SDS011;38960;51.074;17.004;2023-02-05T02:43:50;6.90;;;3.63;;
46653;SDS011;38960;51.074;17.004;2023-02-05T02:46:20;10.52;;;3.60;;
46653;SDS011;38960;51.074;17.004;2023-02-05T02:48:47;7.93;;;3.57;;
46653;SDS011;38960;51.074;17.004;2023-02-05T02:51:14;9.13;;;3.03;;
46653;SDS011;38960;51.074;17.004;2023-02-05T02:53:41;8.17;;;3.50;;
46653;SDS011;38960;51.074;17.004;2023-02-05T02:56:09;8.63;;;3.40;;
46653;SDS011;38960;51.074;17.004;2023-02-05T02:58:39;7.80;;;3.40;;
46653;SDS011;38960;51.074;17.004;2023-02-05T03:01:08;7.73;;;3.77;;
46653;SDS011;38960;51.074;17.004;2023-02-05T03:03:35;9.13;;;3.97;;
46653;SDS011;38960;51.074;17.004;2023-02-05T03:06:05;9.53;;;3.40;;
46653;SDS011;38960;51.074;17.004;2023-02-05T03:08:33;7.70;;;3.50;;
46653;SDS011;38960;51.074;17.004;2023-02-05T03:11:23;8.83;;;3.60;;
46653;SDS011;38960;51.074;17.004;2023-02-05T03:13:50;9.30;;;4.03;;
46653;SDS011;38960;51.074;17.004;2023-02-05T03:16:20;8.93;;;4.60;;
46653;SDS011;38960;51.074;17.004;2023-02-05T03:18:46;10.87;;;4.57;;
46653;SDS011;38960;51.074;17.004;2023-02-05T03:21:17;9.00;;;4.60;;
46653;SDS011;38960;51.074;17.004;2023-02-05T03:23:49;6.27;;;3.50;;
46653;SDS011;38960;51.074;17.004;2023-02-05T03:26:22;8.60;;;4.30;;
46653;SDS011;38960;51.074;17.004;2023-02-05T03:29:10;13.00;;;4.50;;
46653;SDS011;38960;51.074;17.004;2023-02-05T03:37:25;13.20;;;5.13;;
46653;SDS011;38960;51.074;17.004;2023-02-05T03:40:04;10.13;;;4.37;;
46653;SDS011;38960;51.074;17.004;2023-02-05T03:50:38;7.77;;;3.50;;
46653;SDS011;38960;51.074;17.004;2023-02-05T03:53:12;8.27;;;3.90;;
46653;SDS011;38960;51.074;17.004;2023-02-05T03:55:45;9.83;;;4.13;;
46653;SDS011;38960;51.074;17.004;2023-02-05T03:58:18;8.27;;;4.50;;
46653;SDS011;38960;51.074;17.004;2023-02-05T04:01:07;7.17;;;3.63;;
46653;SDS011;38960;51.074;17.004;2023-02-05T04:03:36;7.07;;;3.47;;
46653;SDS011;38960;51.074;17.004;2023-02-05T04:06:01;9.93;;;4.33;;
46653;SDS011;38960;51.074;17.004;2023-02-05T04:08:27;7.67;;;3.40;;
46653;SDS011;38960;51.074;17.004;2023-02-05T04:10:53;9.10;;;4.13;;
46653;SDS011;38960;51.074;17.004;2023-02-05T04:13:19;6.23;;;3.20;;
46653;SDS011;38960;51.074;17.004;2023-02-05T04:15:47;8.43;;;3.80;;
46653;SDS011;38960;51.074;17.004;2023-02-05T04:18:14;6.73;;;3.63;;
46653;SDS011;38960;51.074;17.004;2023-02-05T04:20:42;7.43;;;4.00;;
46653;SDS011;38960;51.074;17.004;2023-02-05T04:23:08;8.60;;;4.10;;
46653;SDS011;38960;51.074;17.004;2023-02-05T04:25:38;7.20;;;3.93;;
46653;SDS011;38960;51.074;17.004;2023-02-05T04:28:06;8.13;;;4.00;;
46653;SDS011;38960;51.074;17.004;2023-02-05T04:30:34;11.13;;;4.30;;
46653;SDS011;38960;51.074;17.004;2023-02-05T04:33:01;9.57;;;4.27;;
46653;SDS011;38960;51.074;17.004;2023-02-05T04:35:28;9.97;;;3.73;;
46653;SDS011;38960;51.074;17.004;2023-02-05T04:37:54;7.03;;;3.43;;
46653;SDS011;38960;51.074;17.004;2023-02-05T04:40:19;8.07;;;3.60;;
46653;SDS011;38960;51.074;17.004;2023-02-05T04:42:45;8.00;;;3.57;;
46653;SDS011;38960;51.074;17.004;2023-02-05T04:45:10;7.63;;;3.80;;
46653;SDS011;38960;51.074;17.004;2023-02-05T04:47:36;6.37;;;3.37;;
46653;SDS011;38960;51.074;17.004;2023-02-05T04:50:02;8.10;;;3.27;;
46653;SDS011;38960;51.074;17.004;2023-02-05T04:52:28;7.83;;;3.30;;
46653;SDS011;38960;51.074;17.004;2023-02-05T04:54:54;8.03;;;3.37;;
46653;SDS011;38960;51.074;17.004;2023-02-05T04:57:20;8.57;;;4.03;;
46653;SDS011;38960;51.074;17.004;2023-02-05T04:59:45;8.10;;;3.63;;
46653;SDS011;38960;51.074;17.004;2023-02-05T05:02:11;8.63;;;3.57;;
46653;SDS011;38960;51.074;17.004;2023-02-05T05:04:37;6.50;;;3.80;;
46653;SDS011;38960;51.074;17.004;2023-02-05T05:07:02;7.10;;;3.50;;
46653;SDS011;38960;51.074;17.004;2023-02-05T05:09:28;7.67;;;3.67;;
46653;SDS011;38960;51.074;17.004;2023-02-05T05:11:54;7.73;;;3.83;;
46653;SDS011;38960;51.074;17.004;2023-02-05T05:14:20;8.83;;;4.40;;
46653;SDS011;38960;51.074;17.004;2023-02-05T05:16:47;10.43;;;4.47;;
46653;SDS011;38960;51.074;17.004;2023-02-05T05:19:13;9.93;;;4.87;;
46653;SDS011;38960;51.074;17.004;2023-02-05T05:21:39;10.00;;;4.60;;
46653;SDS011;38960;51.074;17.004;2023-02-05T05:24:04;9.83;;;4.80;;
46653;SDS011;38960;51.074;17.004;2023-02-05T05:26:30;10.77;;;4.83;;
46653;SDS011;38960;51.074;17.004;2023-02-05T05:28:56;9.47;;;4.60;;
46653;SDS011;38960;51.074;17.004;2023-02-05T05:31:22;9.67;;;5.27;;
46653;SDS011;38960;51.074;17.004;2023-02-05T05:33:48;11.80;;;5.40;;
46653;SDS011;38960;51.074;17.004;2023-02-05T05:36:14;13.97;;;6.63;;
46653;SDS011;38960;51.074;17.004;2023-02-05T05:38:40;14.37;;;6.93;;
46653;SDS011;38960;51.074;17.004;2023-02-05T05:41:05;12.00;;;5.97;;
46653;SDS011;38960;51.074;17.004;2023-02-05T05:43:51;13.33;;;5.60;;
46653;SDS011;38960;51.074;17.004;2023-02-05T05:46:19;10.60;;;5.37;;
46653;SDS011;38960;51.074;17.004;2023-02-05T05:48:50;14.40;;;6.33;;
46653;SDS011;38960;51.074;17.004;2023-02-05T05:51:17;8.07;;;4.23;;
46653;SDS011;38960;51.074;17.004;2023-02-05T05:53:43;10.63;;;4.90;;
46653;SDS011;38960;51.074;17.004;2023-02-05T05:56:10;10.13;;;5.10;;
46653;SDS011;38960;51.074;17.004;2023-02-05T05:58:36;9.43;;;4.80;;
46653;SDS011;38960;51.074;17.004;2023-02-05T06:01:01;11.00;;;5.50;;
46653;SDS011;38960;51.074;17.004;2023-02-05T06:03:28;10.30;;;4.77;;
46653;SDS011;38960;51.074;17.004;2023-02-05T06:05:54;11.13;;;4.83;;
46653;SDS011;38960;51.074;17.004;2023-02-05T06:08:19;13.10;;;5.33;;
46653;SDS011;38960;51.074;17.004;2023-02-05T06:10:45;11.53;;;5.40;;
46653;SDS011;38960;51.074;17.004;2023-02-05T06:13:11;11.60;;;5.33;;
46653;SDS011;38960;51.074;17.004;2023-02-05T06:15:36;12.83;;;5.47;;
46653;SDS011;38960;51.074;17.004;2023-02-05T06:18:02;10.57;;;5.03;;
46653;SDS011;38960;51.074;17.004;2023-02-05T06:20:28;10.30;;;4.60;;
46653;SDS011;38960;51.074;17.004;2023-02-05T06:22:54;13.37;;;6.00;;
46653;SDS011;38960;51.074;17.004;2023-02-05T06:25:19;9.80;;;5.30;;
46653;SDS011;38960;51.074;17.004;2023-02-05T06:27:46;11.23;;;5.60;;
46653;SDS011;38960;51.074;17.004;2023-02-05T06:30:12;14.40;;;6.43;;
46653;SDS011;38960;51.074;17.004;2023-02-05T06:32:38;12.43;;;6.63;;
46653;SDS011;38960;51.074;17.004;2023-02-05T06:35:04;11.10;;;6.13;;
46653;SDS011;38960;51.074;17.004;2023-02-05T06:37:30;14.87;;;7.03;;
46653;SDS011;38960;51.074;17.004;2023-02-05T06:39:56;13.27;;;6.00;;
46653;SDS011;38960;51.074;17.004;2023-02-05T06:42:21;15.17;;;6.83;;
46653;SDS011;38960;51.074;17.004;2023-02-05T06:44:47;12.87;;;6.60;;
46653;SDS011;38960;51.074;17.004;2023-02-05T06:47:13;17.33;;;7.10;;
46653;SDS011;38960;51.074;17.004;2023-02-05T06:49:39;14.27;;;6.73;;
46653;SDS011;38960;51.074;17.004;2023-02-05T06:52:04;13.77;;;7.23;;
46653;SDS011;38960;51.074;17.004;2023-02-05T06:54:30;13.83;;;7.27;;
46653;SDS011;38960;51.074;17.004;2023-02-05T06:56:56;10.33;;;6.00;;
46653;SDS011;38960;51.074;17.004;2023-02-05T06:59:22;11.47;;;5.77;;
46653;SDS011;38960;51.074;17.004;2023-02-05T07:01:48;11.07;;;5.73;;
46653;SDS011;38960;51.074;17.004;2023-02-05T07:04:13;12.77;;;5.23;;
46653;SDS011;38960;51.074;17.004;2023-02-05T07:06:40;8.30;;;4.87;;
46653;SDS011;38960;51.074;17.004;2023-02-05T07:09:06;11.20;;;5.37;;
46653;SDS011;38960;51.074;17.004;2023-02-05T07:11:32;13.10;;;5.50;;
46653;SDS011;38960;51.074;17.004;2023-02-05T07:14:01;12.97;;;5.27;;
46653;SDS011;38960;51.074;17.004;2023-02-05T07:16:28;14.33;;;5.30;;
46653;SDS011;38960;51.074;17.004;2023-02-05T07:18:56;11.37;;;5.10;;
46653;SDS011;38960;51.074;17.004;2023-02-05T07:21:24;11.63;;;5.70;;
46653;SDS011;38960;51.074;17.004;2023-02-05T07:23:50;12.30;;;4.50;;
46653;SDS011;38960;51.074;17.004;2023-02-05T07:26:16;10.53;;;4.93;;
46653;SDS011;38960;51.074;17.004;2023-02-05T07:28:42;9.70;;;4.93;;
46653;SDS011;38960;51.074;17.004;2023-02-05T07:31:09;10.23;;;5.20;;
46653;SDS011;38960;51.074;17.004;2023-02-05T07:33:36;11.03;;;4.87;;
46653;SDS011;38960;51.074;17.004;2023-02-05T07:36:03;13.23;;;5.40;;
46653;SDS011;38960;51.074;17.004;2023-02-05T07:38:29;11.73;;;5.67;;
46653;SDS011;38960;51.074;17.004;2023-02-05T07:40:55;11.97;;;5.47;;
46653;SDS011;38960;51.074;17.004;2023-02-05T07:43:21;10.37;;;6.20;;
46653;SDS011;38960;51.074;17.004;2023-02-05T07:45:47;11.10;;;5.20;;
46653;SDS011;38960;51.074;17.004;2023-02-05T07:48:14;12.50;;;6.33;;
46653;SDS011;38960;51.074;17.004;2023-02-05T07:50:42;12.67;;;6.10;;
46653;SDS011;38960;51.074;17.004;2023-02-05T07:53:09;13.50;;;5.97;;
46653;SDS011;38960;51.074;17.004;2023-02-05T07:55:34;11.17;;;6.10;;
46653;SDS011;38960;51.074;17.004;2023-02-05T07:58:00;13.60;;;6.23;;
46653;SDS011;38960;51.074;17.004;2023-02-05T08:00:26;11.23;;;6.13;;
46653;SDS011;38960;51.074;17.004;2023-02-05T08:02:51;11.60;;;5.70;;
46653;SDS011;38960;51.074;17.004;2023-02-05T08:05:17;12.23;;;6.10;;
46653;SDS011;38960;51.074;17.004;2023-02-05T08:07:42;12.83;;;6.10;;
46653;SDS011;38960;51.074;17.004;2023-02-05T08:10:08;13.80;;;6.47;;
46653;SDS011;38960;51.074;17.004;2023-02-05T08:12:35;12.37;;;7.13;;
46653;SDS011;38960;51.074;17.004;2023-02-05T08:15:01;11.27;;;6.43;;
46653;SDS011;38960;51.074;17.004;2023-02-05T08:17:27;14.53;;;6.83;;
46653;SDS011;38960;51.074;17.004;2023-02-05T08:19:53;12.47;;;7.03;;
46653;SDS011;38960;51.074;17.004;2023-02-05T08:22:18;10.77;;;6.30;;
46653;SDS011;38960;51.074;17.004;2023-02-05T08:24:44;11.30;;;5.90;;
46653;SDS011;38960;51.074;17.004;2023-02-05T08:27:09;13.77;;;6.77;;
46653;SDS011;38960;51.074;17.004;2023-02-05T08:29:35;14.77;;;6.77;;
46653;SDS011;38960;51.074;17.004;2023-02-05T08:32:01;13.53;;;6.07;;
46653;SDS011;38960;51.074;17.004;2023-02-05T08:34:27;10.43;;;5.03;;
46653;SDS011;38960;51.074;17.004;2023-02-05T08:36:53;10.03;;;5.53;;
46653;SDS011;38960;51.074;17.004;2023-02-05T08:39:18;10.13;;;5.07;;
46653;SDS011;38960;51.074;17.004;2023-02-05T08:41:44;10.67;;;6.03;;
46653;SDS011;38960;51.074;17.004;2023-02-05T08:44:10;9.53;;;5.37;;
46653;SDS011;38960;51.074;17.004;2023-02-05T08:46:37;8.57;;;4.60;;
46653;SDS011;38960;51.074;17.004;2023-02-05T08:49:03;12.20;;;4.73;;
46653;SDS011;38960;51.074;17.004;2023-02-05T08:51:29;8.40;;;4.77;;
46653;SDS011;38960;51.074;17.004;2023-02-05T08:53:54;8.37;;;4.57;;
46653;SDS011;38960;51.074;17.004;2023-02-05T08:56:20;7.70;;;4.27;;
46653;SDS011;38960;51.074;17.004;2023-02-05T08:58:46;6.10;;;4.03;;
46653;SDS011;38960;51.074;17.004;2023-02-05T09:01:13;8.13;;;4.70;;
46653;SDS011;38960;51.074;17.004;2023-02-05T09:03:40;6.67;;;3.80;;
46653;SDS011;38960;51.074;17.004;2023-02-05T09:06:06;8.37;;;4.40;;
46653;SDS011;38960;51.074;17.004;2023-02-05T09:08:33;7.43;;;4.00;;
46653;SDS011;38960;51.074;17.004;2023-02-05T09:10:59;10.10;;;4.60;;
46653;SDS011;38960;51.074;17.004;2023-02-05T09:13:25;8.80;;;3.97;;
46653;SDS011;38960;51.074;17.004;2023-02-05T09:15:51;6.17;;;4.07;;
46653;SDS011;38960;51.074;17.004;2023-02-05T09:18:16;7.80;;;4.70;;
46653;SDS011;38960;51.074;17.004;2023-02-05T09:20:43;7.33;;;4.23;;
46653;SDS011;38960;51.074;17.004;2023-02-05T09:23:10;7.13;;;5.07;;
46653;SDS011;38960;51.074;17.004;2023-02-05T09:25:36;8.97;;;4.70;;
46653;SDS011;38960;51.074;17.004;2023-02-05T09:28:03;8.60;;;5.63;;
46653;SDS011;38960;51.074;17.004;2023-02-05T09:30:32;9.65;;;5.10;;
46653;SDS011;38960;51.074;17.004;2023-02-05T09:32:58;11.90;;;5.40;;
46653;SDS011;38960;51.074;17.004;2023-02-05T09:35:23;9.25;;;5.15;;
46653;SDS011;38960;51.074;17.004;2023-02-05T09:37:49;8.65;;;5.35;;
46653;SDS011;38960;51.074;17.004;2023-02-05T09:40:25;10.43;;;5.32;;
46653;SDS011;38960;51.074;17.004;2023-02-05T09:43:04;12.70;;;5.90;;
46653;SDS011;38960;51.074;17.004;2023-02-05T09:50:55;9.05;;;5.43;;
46653;SDS011;38960;51.074;17.004;2023-02-05T09:53:21;7.95;;;4.97;;
46653;SDS011;38960;51.074;17.004;2023-02-05T09:55:47;10.63;;;5.88;;
46653;SDS011;38960;51.074;17.004;2023-02-05T09:58:15;9.75;;;6.25;;
46653;SDS011;38960;51.074;17.004;2023-02-05T10:00:48;11.65;;;6.72;;
46653;SDS011;38960;51.074;17.004;2023-02-05T10:03:24;11.27;;;6.82;;
46653;SDS011;38960;51.074;17.004;2023-02-05T10:08:54;5.35;;;2.72;;
46653;SDS011;38960;51.074;17.004;2023-02-05T10:11:34;3.35;;;2.55;;
46653;SDS011;38960;51.074;17.004;2023-02-05T10:17:15;3.63;;;2.65;;
46653;SDS011;38960;51.074;17.004;2023-02-05T10:22:45;8.32;;;3.22;;
46653;SDS011;38960;51.074;17.004;2023-02-05T10:30:56;3.78;;;2.03;;
46653;SDS011;38960;51.074;17.004;2023-02-05T10:36:04;4.05;;;2.17;;
46653;SDS011;38960;51.074;17.004;2023-02-05T10:38:35;3.55;;;2.47;;
46653;SDS011;38960;51.074;17.004;2023-02-05T10:43:49;3.63;;;1.83;;
46653;SDS011;38960;51.074;17.004;2023-02-05T10:46:18;4.87;;;1.70;;
46653;SDS011;38960;51.074;17.004;2023-02-05T10:48:51;1.42;;;1.13;;
46653;SDS011;38960;51.074;17.004;2023-02-05T10:51:29;7.05;;;1.58;;
46653;SDS011;38960;51.074;17.004;2023-02-05T10:53:57;2.47;;;1.70;;
46653;SDS011;38960;51.074;17.004;2023-02-05T10:56:24;5.63;;;1.73;;
46653;SDS011;38960;51.074;17.004;2023-02-05T10:58:51;2.90;;;1.70;;
46653;SDS011;38960;51.074;17.004;2023-02-05T11:01:25;3.30;;;1.67;;
46653;SDS011;38960;51.074;17.004;2023-02-05T11:06:25;3.67;;;1.90;;
46653;SDS011;38960;51.074;17.004;2023-02-05T11:08:52;3.53;;;1.73;;
46653;SDS011;38960;51.074;17.004;2023-02-05T11:11:19;3.43;;;1.60;;
46653;SDS011;38960;51.074;17.004;2023-02-05T11:13:50;3.93;;;2.20;;
46653;SDS011;38960;51.074;17.004;2023-02-05T11:16:18;5.40;;;2.10;;
46653;SDS011;38960;51.074;17.004;2023-02-05T11:18:45;6.07;;;2.50;;
46653;SDS011;38960;51.074;17.004;2023-02-05T11:21:18;2.50;;;1.60;;
46653;SDS011;38960;51.074;17.004;2023-02-05T11:23:52;2.70;;;1.90;;
46653;SDS011;38960;51.074;17.004;2023-02-05T11:26:22;2.93;;;2.20;;
46653;SDS011;38960;51.074;17.004;2023-02-05T11:28:49;3.50;;;2.07;;
46653;SDS011;38960;51.074;17.004;2023-02-05T11:33:44;7.03;;;3.10;;
46653;SDS011;38960;51.074;17.004;2023-02-05T11:36:22;6.90;;;2.70;;
46653;SDS011;38960;51.074;17.004;2023-02-05T11:38:55;3.77;;;2.60;;
46653;SDS011;38960;51.074;17.004;2023-02-05T11:43:54;12.33;;;3.23;;
46653;SDS011;38960;51.074;17.004;2023-02-05T11:46:21;6.40;;;3.57;;
46653;SDS011;38960;51.074;17.004;2023-02-05T11:48:58;5.90;;;2.40;;
46653;SDS011;38960;51.074;17.004;2023-02-05T11:51:47;7.07;;;2.27;;
46653;SDS011;38960;51.074;17.004;2023-02-05T11:56:57;8.55;;;2.30;;
46653;SDS011;38960;51.074;17.004;2023-02-05T11:59:30;7.47;;;2.63;;
46653;SDS011;38960;51.074;17.004;2023-02-05T12:02:13;6.80;;;2.70;;
46653;SDS011;38960;51.074;17.004;2023-02-05T12:05:16;5.80;;;2.47;;
46653;SDS011;38960;51.074;17.004;2023-02-05T12:10:22;8.60;;;3.07;;
46653;SDS011;38960;51.074;17.004;2023-02-05T12:13:09;9.43;;;3.00;;
46653;SDS011;38960;51.074;17.004;2023-02-05T12:15:58;11.50;;;3.65;;
46653;SDS011;38960;51.074;17.004;2023-02-05T12:21:12;9.70;;;3.43;;
46653;SDS011;38960;51.074;17.004;2023-02-05T12:23:59;5.83;;;2.70;;
46653;SDS011;38960;51.074;17.004;2023-02-05T12:26:40;5.60;;;2.57;;
46653;SDS011;38960;51.074;17.004;2023-02-05T12:32:00;11.70;;;2.77;;
46653;SDS011;38960;51.074;17.004;2023-02-05T12:37:07;4.00;;;2.55;;
46653;SDS011;38960;51.074;17.004;2023-02-05T12:49:53;4.50;;;2.50;;
46653;SDS011;38960;51.074;17.004;2023-02-05T12:57:43;7.10;;;2.40;;
46653;SDS011;38960;51.074;17.004;2023-02-05T13:02:47;6.03;;;3.00;;
46653;SDS011;38960;51.074;17.004;2023-02-05T13:07:58;7.57;;;3.23;;
46653;SDS011;38960;51.074;17.004;2023-02-05T13:10:28;8.80;;;3.13;;
46653;SDS011;38960;51.074;17.004;2023-02-05T13:13:00;10.30;;;3.53;;
46653;SDS011;38960;51.074;17.004;2023-02-05T13:15:38;9.40;;;3.60;;
46653;SDS011;38960;51.074;17.004;2023-02-05T13:20:41;10.20;;;3.50;;
46653;SDS011;38960;51.074;17.004;2023-02-05T13:23:28;5.73;;;2.93;;
46653;SDS011;38960;51.074;17.004;2023-02-05T13:26:13;7.10;;;3.30;;
46653;SDS011;38960;51.074;17.004;2023-02-05T13:28:50;6.60;;;3.60;;
46653;SDS011;38960;51.074;17.004;2023-02-05T13:34:08;8.10;;;3.07;;
46653;SDS011;38960;51.074;17.004;2023-02-05T13:44:21;6.27;;;3.13;;
46653;SDS011;38960;51.074;17.004;2023-02-05T13:52:55;6.60;;;3.10;;
46653;SDS011;38960;51.074;17.004;2023-02-05T13:58:30;8.27;;;3.67;;
46653;SDS011;38960;51.074;17.004;2023-02-05T14:01:12;9.53;;;4.30;;
46653;SDS011;38960;51.074;17.004;2023-02-05T14:03:43;8.13;;;4.03;;
46653;SDS011;38960;51.074;17.004;2023-02-05T14:08:47;7.90;;;3.23;;
46653;SDS011;38960;51.074;17.004;2023-02-05T14:11:21;7.23;;;3.77;;
46653;SDS011;38960;51.074;17.004;2023-02-05T14:16:41;6.10;;;3.90;;
46653;SDS011;38960;51.074;17.004;2023-02-05T14:23:58;5.70;;;3.73;;
46653;SDS011;38960;51.074;17.004;2023-02-05T14:32:03;8.13;;;4.00;;
46653;SDS011;38960;51.074;17.004;2023-02-05T14:36:57;7.17;;;3.57;;
46653;SDS011;38960;51.074;17.004;2023-02-05T14:39:27;6.77;;;3.23;;
46653;SDS011;38960;51.074;17.004;2023-02-05T14:41:56;6.60;;;3.37;;
46653;SDS011;38960;51.074;17.004;2023-02-05T14:44:26;6.87;;;3.50;;
46653;SDS011;38960;51.074;17.004;2023-02-05T14:47:38;8.60;;;3.63;;
46653;SDS011;38960;51.074;17.004;2023-02-05T14:49:46;6.83;;;3.83;;
46653;SDS011;38960;51.074;17.004;2023-02-05T14:52:28;13.20;;;4.10;;
46653;SDS011;38960;51.074;17.004;2023-02-05T14:57:44;8.17;;;4.00;;
46653;SDS011;38960;51.074;17.004;2023-02-05T15:00:20;8.93;;;4.40;;
46653;SDS011;38960;51.074;17.004;2023-02-05T15:16:46;10.07;;;4.13;;
46653;SDS011;38960;51.074;17.004;2023-02-05T15:19:12;7.93;;;3.90;;
46653;SDS011;38960;51.074;17.004;2023-02-05T15:21:41;9.67;;;3.80;;
46653;SDS011;38960;51.074;17.004;2023-02-05T15:24:14;8.03;;;4.13;;
46653;SDS011;38960;51.074;17.004;2023-02-05T15:26:41;7.90;;;4.00;;
46653;SDS011;38960;51.074;17.004;2023-02-05T15:31:46;7.80;;;4.13;;
46653;SDS011;38960;51.074;17.004;2023-02-05T15:42:15;10.10;;;4.83;;
46653;SDS011;38960;51.074;17.004;2023-02-05T15:44:42;8.30;;;4.10;;
46653;SDS011;38960;51.074;17.004;2023-02-05T15:47:10;12.53;;;4.13;;
46653;SDS011;38960;51.074;17.004;2023-02-05T15:49:45;7.43;;;3.90;;
46653;SDS011;38960;51.074;17.004;2023-02-05T15:52:31;11.80;;;4.57;;
46653;SDS011;38960;51.074;17.004;2023-02-05T15:55:00;11.33;;;5.10;;
46653;SDS011;38960;51.074;17.004;2023-02-05T15:57:35;11.50;;;5.60;;
46653;SDS011;38960;51.074;17.004;2023-02-05T16:00:00;9.50;;;5.30;;
46653;SDS011;38960;51.074;17.004;2023-02-05T16:02:29;11.93;;;4.80;;
46653;SDS011;38960;51.074;17.004;2023-02-05T16:04:59;7.67;;;4.50;;
46653;SDS011;38960;51.074;17.004;2023-02-05T16:07:35;10.30;;;6.23;;
46653;SDS011;38960;51.074;17.004;2023-02-05T16:10:14;10.77;;;6.93;;
46653;SDS011;38960;51.074;17.004;2023-02-05T16:15:22;8.60;;;4.53;;
46653;SDS011;38960;51.074;17.004;2023-02-05T16:17:53;11.30;;;4.97;;
46653;SDS011;38960;51.074;17.004;2023-02-05T16:20:27;8.20;;;5.10;;
46653;SDS011;38960;51.074;17.004;2023-02-05T16:23:00;9.80;;;4.73;;
46653;SDS011;38960;51.074;17.004;2023-02-05T16:28:14;9.77;;;5.57;;
46653;SDS011;38960;51.074;17.004;2023-02-05T16:30:43;16.03;;;6.77;;
46653;SDS011;38960;51.074;17.004;2023-02-05T16:33:20;14.97;;;8.43;;
46653;SDS011;38960;51.074;17.004;2023-02-05T16:36:14;16.90;;;9.07;;
46653;SDS011;38960;51.074;17.004;2023-02-05T16:38:41;18.20;;;10.53;;
46653;SDS011;38960;51.074;17.004;2023-02-05T16:41:59;21.40;;;11.17;;
46653;SDS011;38960;51.074;17.004;2023-02-05T16:43:54;19.30;;;10.90;;
46653;SDS011;38960;51.074;17.004;2023-02-05T16:46:22;16.93;;;9.63;;
46653;SDS011;38960;51.074;17.004;2023-02-05T16:48:51;20.20;;;9.23;;
46653;SDS011;38960;51.074;17.004;2023-02-05T16:54:43;16.20;;;7.77;;
46653;SDS011;38960;51.074;17.004;2023-02-05T16:56:44;15.90;;;7.50;;
46653;SDS011;38960;51.074;17.004;2023-02-05T16:59:18;13.75;;;6.97;;
46653;SDS011;38960;51.074;17.004;2023-02-05T17:01:47;16.57;;;9.13;;
46653;SDS011;38960;51.074;17.004;2023-02-05T17:04:32;17.17;;;9.73;;
46653;SDS011;38960;51.074;17.004;2023-02-05T17:07:00;19.67;;;10.93;;
46653;SDS011;38960;51.074;17.004;2023-02-05T17:09:31;25.97;;;11.80;;
46653;SDS011;38960;51.074;17.004;2023-02-05T17:14:54;30.17;;;13.17;;
46653;SDS011;38960;51.074;17.004;2023-02-05T17:17:23;25.83;;;13.47;;
46653;SDS011;38960;51.074;17.004;2023-02-05T17:22:37;34.73;;;17.63;;
46653;SDS011;38960;51.074;17.004;2023-02-05T17:25:02;35.17;;;17.67;;
46653;SDS011;38960;51.074;17.004;2023-02-05T17:27:31;37.57;;;17.10;;
46653;SDS011;38960;51.074;17.004;2023-02-05T17:29:59;33.33;;;17.53;;
46653;SDS011;38960;51.074;17.004;2023-02-05T17:32:25;29.70;;;16.13;;
46653;SDS011;38960;51.074;17.004;2023-02-05T17:34:51;34.17;;;16.83;;
46653;SDS011;38960;51.074;17.004;2023-02-05T17:37:17;33.73;;;16.90;;